sensor_id;sensor_type;location;lat;lon;timestamp;P1;P2;P0
78678;PMS5003;67994;59.334;13.528;2024-01-10T00:00:00;28.0;25.3;
78678;PMS5003;67994;59.334;13.528;2024-01-10T00:01:00;28.0;25.3;
78678;PMS5003;67994;59.334;13.528;2024-01-10T00:02:00;18.3;15.4;
78678;PMS5003;67994;59.334;13.528;2024-01-10T00:03:00;18.3;15.4;
78678;PMS5003;67994;59.334;13.528;2024-01-10T00:04:00;18.3;15.4;
78678;PMS5003;67994;59.334;13.528;2024-01-10T00:05:00;18.3;15.4;
78678;PMS5003;67994;59.334;13.528;2024-01-10T00:06:00;18.3;15.4;
78678;PMS5003;67994;59.334;13.528;2024-01-10T00:07:00;25.3;19.3;
78678;PMS5003;67994;59.334;13.528;2024-01-10T00:08:00;25.3;19.3;
78678;PMS5003;67994;59.334;13.528;2024-01-10T00:09:00;25.3;19.3;
78678;PMS5003;67994;59.334;13.528;2024-01-10T00:10:00;25.3;19.3;
78678;PMS5003;67994;59.334;13.528;2024-01-10T00:11:00;25.3;19.3;
78678;PMS5003;67994;59.334;13.528;2024-01-10T00:12:00;19.6;18.6;
78678;PMS5003;67994;59.334;13.528;2024-01-10T00:13:00;19.6;18.6;
78678;PMS5003;67994;59.334;13.528;2024-01-10T00:14:00;19.6;18.6;
78678;PMS5003;67994;59.334;13.528;2024-01-10T00:15:00;19.6;18.6;
78678;PMS5003;67994;59.334;13.528;2024-01-10T00:16:00;19.6;18.6;
78678;PMS5003;67994;59.334;13.528;2024-01-10T00:17:00;30.0;27.0;
78678;PMS5003;67994;59.334;13.528;2024-01-10T00:18:00;30.0;27.0;
78678;PMS5003;67994;59.334;13.528;2024-01-10T00:19:00;30.0;27.0;
78678;PMS5003;67994;59.334;13.528;2024-01-10T00:20:00;30.0;27.0;
78678;PMS5003;67994;59.334;13.528;2024-01-10T00:21:00;30.0;27.0;
78678;PMS5003;67994;59.334;13.528;2024-01-10T00:22:00;32.4;28.6;
78678;PMS5003;67994;59.334;13.528;2024-01-10T00:23:00;32.4;28.6;
78678;PMS5003;67994;59.334;13.528;2024-01-10T00:24:00;32.4;28.6;
78678;PMS5003;67994;59.334;13.528;2024-01-10T00:25:00;32.4;28.6;
78678;PMS5003;67994;59.334;13.528;2024-01-10T00:26:00;32.4;28.6;
78678;PMS5003;67994;59.334;13.528;2024-01-10T00:27:00;37.5;29.0;
78678;PMS5003;67994;59.334;13.528;2024-01-10T00:28:00;37.5;29.0;
78678;PMS5003;67994;59.334;13.528;2024-01-10T00:29:00;37.5;29.0;
78678;PMS5003;67994;59.334;13.528;2024-01-10T00:30:00;37.5;29.0;
78678;PMS5003;67994;59.334;13.528;2024-01-10T00:31:00;37.5;29.0;
78678;PMS5003;67994;59.334;13.528;2024-01-10T00:32:00;33.6;26.0;
78678;PMS5003;67994;59.334;13.528;2024-01-10T00:33:00;33.6;26.0;
78678;PMS5003;67994;59.334;13.528;2024-01-10T00:34:00;33.6;26.0;
78678;PMS5003;67994;59.334;13.528;2024-01-10T00:35:00;33.6;26.0;
78678;PMS5003;67994;59.334;13.528;2024-01-10T00:36:00;33.6;26.0;
78678;PMS5003;67994;59.334;13.528;2024-01-10T00:37:00;17.4;15.9;
78678;PMS5003;67994;59.334;13.528;2024-01-10T00:38:00;17.4;15.9;
78678;PMS5003;67994;59.334;13.528;2024-01-10T00:39:00;17.4;15.9;
78678;PMS5003;67994;59.334;13.528;2024-01-10T00:40:00;17.4;15.9;
78678;PMS5003;67994;59.334;13.528;2024-01-10T00:41:00;17.4;15.9;
78678;PMS5003;67994;59.334;13.528;2024-01-10T00:42:00;22.9;18.0;
78678;PMS5003;67994;59.334;13.528;2024-01-10T00:43:00;22.9;18.0;
78678;PMS5003;67994;59.334;13.528;2024-01-10T00:44:00;22.9;18.0;
78678;PMS5003;67994;59.334;13.528;2024-01-10T00:45:00;22.9;18.0;
78678;PMS5003;67994;59.334;13.528;2024-01-10T00:46:01;22.9;18.0;
78678;PMS5003;67994;59.334;13.528;2024-01-10T00:47:00;29.8;22.6;
78678;PMS5003;67994;59.334;13.528;2024-01-10T00:48:00;29.8;22.6;
78678;PMS5003;67994;59.334;13.528;2024-01-10T00:49:00;29.8;22.6;
78678;PMS5003;67994;59.334;13.528;2024-01-10T00:50:00;29.8;22.6;
78678;PMS5003;67994;59.334;13.528;2024-01-10T00:51:00;29.8;22.6;
78678;PMS5003;67994;59.334;13.528;2024-01-10T00:52:00;23.4;22.6;
78678;PMS5003;67994;59.334;13.528;2024-01-10T00:53:00;23.4;22.6;
78678;PMS5003;67994;59.334;13.528;2024-01-10T00:54:00;23.4;22.6;
78678;PMS5003;67994;59.334;13.528;2024-01-10T00:55:00;23.4;22.6;
78678;PMS5003;67994;59.334;13.528;2024-01-10T00:56:00;23.4;22.6;
78678;PMS5003;67994;59.334;13.528;2024-01-10T00:57:00;16.5;13.5;
78678;PMS5003;67994;59.334;13.528;2024-01-10T00:58:00;16.5;13.5;
78678;PMS5003;67994;59.334;13.528;2024-01-10T00:59:00;16.5;13.5;
78678;PMS5003;67994;59.334;13.528;2024-01-10T01:00:00;16.5;13.5;
78678;PMS5003;67994;59.334;13.528;2024-01-10T01:01:00;16.5;13.5;
78678;PMS5003;67994;59.334;13.528;2024-01-10T01:02:00;19.5;15.0;
78678;PMS5003;67994;59.334;13.528;2024-01-10T01:03:00;19.5;15.0;
78678;PMS5003;67994;59.334;13.528;2024-01-10T01:04:00;19.5;15.0;
78678;PMS5003;67994;59.334;13.528;2024-01-10T01:05:00;19.5;15.0;
78678;PMS5003;67994;59.334;13.528;2024-01-10T01:06:00;19.5;15.0;
78678;PMS5003;67994;59.334;13.528;2024-01-10T01:07:00;14.8;9.6;
78678;PMS5003;67994;59.334;13.528;2024-01-10T01:08:00;14.8;9.6;
78678;PMS5003;67994;59.334;13.528;2024-01-10T01:09:00;14.8;9.6;
78678;PMS5003;67994;59.334;13.528;2024-01-10T01:10:00;14.8;9.6;
78678;PMS5003;67994;59.334;13.528;2024-01-10T01:11:00;14.8;9.6;
78678;PMS5003;67994;59.334;13.528;2024-01-10T01:12:00;9.7;6.1;
78678;PMS5003;67994;59.334;13.528;2024-01-10T01:13:00;9.7;6.1;
78678;PMS5003;67994;59.334;13.528;2024-01-10T01:14:00;9.7;6.1;
78678;PMS5003;67994;59.334;13.528;2024-01-10T01:15:00;9.7;6.1;
78678;PMS5003;67994;59.334;13.528;2024-01-10T01:16:00;9.7;6.1;
78678;PMS5003;67994;59.334;13.528;2024-01-10T01:17:00;9.4;7.8;
78678;PMS5003;67994;59.334;13.528;2024-01-10T01:18:00;9.4;7.8;
78678;PMS5003;67994;59.334;13.528;2024-01-10T01:19:00;9.4;7.8;
78678;PMS5003;67994;59.334;13.528;2024-01-10T01:20:00;9.4;7.8;
78678;PMS5003;67994;59.334;13.528;2024-01-10T01:21:00;9.4;7.8;
78678;PMS5003;67994;59.334;13.528;2024-01-10T01:22:00;18.0;13.0;
78678;PMS5003;67994;59.334;13.528;2024-01-10T01:23:00;18.0;13.0;
78678;PMS5003;67994;59.334;13.528;2024-01-10T01:24:00;18.0;13.0;
78678;PMS5003;67994;59.334;13.528;2024-01-10T01:25:00;18.0;13.0;
78678;PMS5003;67994;59.334;13.528;2024-01-10T01:26:00;18.0;13.0;
78678;PMS5003;67994;59.334;13.528;2024-01-10T01:27:00;14.4;12.0;
78678;PMS5003;67994;59.334;13.528;2024-01-10T01:28:00;14.4;12.0;
78678;PMS5003;67994;59.334;13.528;2024-01-10T01:29:00;14.4;12.0;
78678;PMS5003;67994;59.334;13.528;2024-01-10T01:30:00;14.4;12.0;
78678;PMS5003;67994;59.334;13.528;2024-01-10T01:31:00;14.4;12.0;
78678;PMS5003;67994;59.334;13.528;2024-01-10T01:32:00;12.9;8.4;
78678;PMS5003;67994;59.334;13.528;2024-01-10T01:33:00;12.9;8.4;
78678;PMS5003;67994;59.334;13.528;2024-01-10T01:34:00;12.9;8.4;
78678;PMS5003;67994;59.334;13.528;2024-01-10T01:35:00;12.9;8.4;
78678;PMS5003;67994;59.334;13.528;2024-01-10T01:36:00;12.9;8.4;
78678;PMS5003;67994;59.334;13.528;2024-01-10T01:37:01;14.8;12.3;
78678;PMS5003;67994;59.334;13.528;2024-01-10T01:38:00;14.8;12.3;
78678;PMS5003;67994;59.334;13.528;2024-01-10T01:39:00;14.8;12.3;
78678;PMS5003;67994;59.334;13.528;2024-01-10T01:40:00;14.8;12.3;
78678;PMS5003;67994;59.334;13.528;2024-01-10T01:41:00;14.8;12.3;
78678;PMS5003;67994;59.334;13.528;2024-01-10T01:42:00;18.3;15.9;
78678;PMS5003;67994;59.334;13.528;2024-01-10T01:43:00;18.3;15.9;
78678;PMS5003;67994;59.334;13.528;2024-01-10T01:44:00;18.3;15.9;
78678;PMS5003;67994;59.334;13.528;2024-01-10T01:45:00;18.3;15.9;
78678;PMS5003;67994;59.334;13.528;2024-01-10T01:46:00;18.3;15.9;
78678;PMS5003;67994;59.334;13.528;2024-01-10T01:47:00;9.7;9.6;
78678;PMS5003;67994;59.334;13.528;2024-01-10T01:48:00;9.7;9.6;
78678;PMS5003;67994;59.334;13.528;2024-01-10T01:49:00;9.7;9.6;
78678;PMS5003;67994;59.334;13.528;2024-01-10T01:50:00;9.7;9.6;
78678;PMS5003;67994;59.334;13.528;2024-01-10T01:51:02;9.7;9.6;
78678;PMS5003;67994;59.334;13.528;2024-01-10T01:52:00;7.8;7.5;
78678;PMS5003;67994;59.334;13.528;2024-01-10T01:53:00;7.8;7.5;
78678;PMS5003;67994;59.334;13.528;2024-01-10T01:54:00;7.8;7.5;
78678;PMS5003;67994;59.334;13.528;2024-01-10T01:55:00;7.8;7.5;
78678;PMS5003;67994;59.334;13.528;2024-01-10T01:56:01;7.8;7.5;
78678;PMS5003;67994;59.334;13.528;2024-01-10T01:57:00;11.4;7.0;
78678;PMS5003;67994;59.334;13.528;2024-01-10T01:58:00;11.4;7.0;
78678;PMS5003;67994;59.334;13.528;2024-01-10T01:59:00;11.4;7.0;
78678;PMS5003;67994;59.334;13.528;2024-01-10T02:00:00;11.4;7.0;
78678;PMS5003;67994;59.334;13.528;2024-01-10T02:01:00;11.4;7.0;
78678;PMS5003;67994;59.334;13.528;2024-01-10T02:02:00;7.9;6.4;
78678;PMS5003;67994;59.334;13.528;2024-01-10T02:03:00;7.9;6.4;
78678;PMS5003;67994;59.334;13.528;2024-01-10T02:04:00;7.9;6.4;
78678;PMS5003;67994;59.334;13.528;2024-01-10T02:05:00;7.9;6.4;
78678;PMS5003;67994;59.334;13.528;2024-01-10T02:06:00;7.9;6.4;
78678;PMS5003;67994;59.334;13.528;2024-01-10T02:07:00;7.6;6.0;
78678;PMS5003;67994;59.334;13.528;2024-01-10T02:08:00;7.6;6.0;
78678;PMS5003;67994;59.334;13.528;2024-01-10T02:09:00;7.6;6.0;
78678;PMS5003;67994;59.334;13.528;2024-01-10T02:10:00;7.6;6.0;
78678;PMS5003;67994;59.334;13.528;2024-01-10T02:11:00;7.6;6.0;
78678;PMS5003;67994;59.334;13.528;2024-01-10T02:12:00;4.2;4.0;
78678;PMS5003;67994;59.334;13.528;2024-01-10T02:13:00;4.2;4.0;
78678;PMS5003;67994;59.334;13.528;2024-01-10T02:14:00;4.2;4.0;
78678;PMS5003;67994;59.334;13.528;2024-01-10T02:15:00;4.2;4.0;
78678;PMS5003;67994;59.334;13.528;2024-01-10T02:16:00;4.2;4.0;
78678;PMS5003;67994;59.334;13.528;2024-01-10T02:17:00;6.3;3.4;
78678;PMS5003;67994;59.334;13.528;2024-01-10T02:18:00;6.3;3.4;
78678;PMS5003;67994;59.334;13.528;2024-01-10T02:19:00;6.3;3.4;
78678;PMS5003;67994;59.334;13.528;2024-01-10T02:20:08;6.3;3.4;
78678;PMS5003;67994;59.334;13.528;2024-01-10T02:21:00;6.3;3.4;
78678;PMS5003;67994;59.334;13.528;2024-01-10T02:22:00;8.9;7.8;
78678;PMS5003;67994;59.334;13.528;2024-01-10T02:23:00;8.9;7.8;
78678;PMS5003;67994;59.334;13.528;2024-01-10T02:24:00;8.9;7.8;
78678;PMS5003;67994;59.334;13.528;2024-01-10T02:25:00;8.9;7.8;
78678;PMS5003;67994;59.334;13.528;2024-01-10T02:26:00;8.9;7.8;
78678;PMS5003;67994;59.334;13.528;2024-01-10T02:27:00;7.6;5.4;
78678;PMS5003;67994;59.334;13.528;2024-01-10T02:28:00;7.6;5.4;
78678;PMS5003;67994;59.334;13.528;2024-01-10T02:29:00;7.6;5.4;
78678;PMS5003;67994;59.334;13.528;2024-01-10T02:30:00;7.6;5.4;
78678;PMS5003;67994;59.334;13.528;2024-01-10T02:31:00;7.6;5.4;
78678;PMS5003;67994;59.334;13.528;2024-01-10T02:32:00;6.0;6.0;
78678;PMS5003;67994;59.334;13.528;2024-01-10T02:33:00;6.0;6.0;
78678;PMS5003;67994;59.334;13.528;2024-01-10T02:34:00;6.0;6.0;
78678;PMS5003;67994;59.334;13.528;2024-01-10T02:35:00;6.0;6.0;
78678;PMS5003;67994;59.334;13.528;2024-01-10T02:36:00;6.0;6.0;
78678;PMS5003;67994;59.334;13.528;2024-01-10T02:37:00;5.2;3.4;
78678;PMS5003;67994;59.334;13.528;2024-01-10T02:38:00;5.2;3.4;
78678;PMS5003;67994;59.334;13.528;2024-01-10T02:39:00;5.2;3.4;
78678;PMS5003;67994;59.334;13.528;2024-01-10T02:40:00;5.2;3.4;
78678;PMS5003;67994;59.334;13.528;2024-01-10T02:41:00;5.2;3.4;
78678;PMS5003;67994;59.334;13.528;2024-01-10T02:42:00;7.9;4.8;
78678;PMS5003;67994;59.334;13.528;2024-01-10T02:43:00;7.9;4.8;
78678;PMS5003;67994;59.334;13.528;2024-01-10T02:44:00;7.9;4.8;
78678;PMS5003;67994;59.334;13.528;2024-01-10T02:45:00;7.9;4.8;
78678;PMS5003;67994;59.334;13.528;2024-01-10T02:46:00;7.9;4.8;
78678;PMS5003;67994;59.334;13.528;2024-01-10T02:47:00;4.5;3.7;
78678;PMS5003;67994;59.334;13.528;2024-01-10T02:48:00;4.5;3.7;
78678;PMS5003;67994;59.334;13.528;2024-01-10T02:49:00;4.5;3.7;
78678;PMS5003;67994;59.334;13.528;2024-01-10T02:50:00;4.5;3.7;
78678;PMS5003;67994;59.334;13.528;2024-01-10T02:51:00;4.5;3.7;
78678;PMS5003;67994;59.334;13.528;2024-01-10T02:52:00;3.9;3.9;
78678;PMS5003;67994;59.334;13.528;2024-01-10T02:53:00;3.9;3.9;
78678;PMS5003;67994;59.334;13.528;2024-01-10T02:54:00;3.9;3.9;
78678;PMS5003;67994;59.334;13.528;2024-01-10T02:55:00;3.9;3.9;
78678;PMS5003;67994;59.334;13.528;2024-01-10T02:56:00;3.9;3.9;
78678;PMS5003;67994;59.334;13.528;2024-01-10T02:57:00;3.4;3.4;
78678;PMS5003;67994;59.334;13.528;2024-01-10T02:58:00;3.4;3.4;
78678;PMS5003;67994;59.334;13.528;2024-01-10T02:59:00;3.4;3.4;
78678;PMS5003;67994;59.334;13.528;2024-01-10T03:00:00;3.4;3.4;
78678;PMS5003;67994;59.334;13.528;2024-01-10T03:01:00;3.4;3.4;
78678;PMS5003;67994;59.334;13.528;2024-01-10T03:02:00;4.0;4.0;
78678;PMS5003;67994;59.334;13.528;2024-01-10T03:03:00;4.0;4.0;
78678;PMS5003;67994;59.334;13.528;2024-01-10T03:04:00;4.0;4.0;
78678;PMS5003;67994;59.334;13.528;2024-01-10T03:05:00;4.0;4.0;
78678;PMS5003;67994;59.334;13.528;2024-01-10T03:06:00;4.0;4.0;
78678;PMS5003;67994;59.334;13.528;2024-01-10T03:07:00;5.4;4.0;
78678;PMS5003;67994;59.334;13.528;2024-01-10T03:08:00;5.4;4.0;
78678;PMS5003;67994;59.334;13.528;2024-01-10T03:09:00;5.4;4.0;
78678;PMS5003;67994;59.334;13.528;2024-01-10T03:10:00;5.4;4.0;
78678;PMS5003;67994;59.334;13.528;2024-01-10T03:11:00;5.4;4.0;
78678;PMS5003;67994;59.334;13.528;2024-01-10T03:12:00;6.1;6.1;
78678;PMS5003;67994;59.334;13.528;2024-01-10T03:13:00;6.1;6.1;
78678;PMS5003;67994;59.334;13.528;2024-01-10T03:14:00;6.1;6.1;
78678;PMS5003;67994;59.334;13.528;2024-01-10T03:15:00;6.1;6.1;
78678;PMS5003;67994;59.334;13.528;2024-01-10T03:16:00;6.1;6.1;
78678;PMS5003;67994;59.334;13.528;2024-01-10T03:17:00;6.0;6.0;
78678;PMS5003;67994;59.334;13.528;2024-01-10T03:18:00;6.0;6.0;
78678;PMS5003;67994;59.334;13.528;2024-01-10T03:19:00;6.0;6.0;
78678;PMS5003;67994;59.334;13.528;2024-01-10T03:20:00;6.0;6.0;
78678;PMS5003;67994;59.334;13.528;2024-01-10T03:21:00;6.0;6.0;
78678;PMS5003;67994;59.334;13.528;2024-01-10T03:22:00;6.4;3.7;
78678;PMS5003;67994;59.334;13.528;2024-01-10T03:23:00;6.4;3.7;
78678;PMS5003;67994;59.334;13.528;2024-01-10T03:24:00;6.4;3.7;
78678;PMS5003;67994;59.334;13.528;2024-01-10T03:25:00;6.4;3.7;
78678;PMS5003;67994;59.334;13.528;2024-01-10T03:26:00;6.4;3.7;
78678;PMS5003;67994;59.334;13.528;2024-01-10T03:27:00;10.8;7.0;
78678;PMS5003;67994;59.334;13.528;2024-01-10T03:28:00;10.8;7.0;
78678;PMS5003;67994;59.334;13.528;2024-01-10T03:29:00;10.8;7.0;
78678;PMS5003;67994;59.334;13.528;2024-01-10T03:30:00;10.8;7.0;
78678;PMS5003;67994;59.334;13.528;2024-01-10T03:31:00;10.8;7.0;
78678;PMS5003;67994;59.334;13.528;2024-01-10T03:32:00;5.2;5.2;
78678;PMS5003;67994;59.334;13.528;2024-01-10T03:33:00;5.2;5.2;
78678;PMS5003;67994;59.334;13.528;2024-01-10T03:34:00;5.2;5.2;
78678;PMS5003;67994;59.334;13.528;2024-01-10T03:35:00;5.2;5.2;
78678;PMS5003;67994;59.334;13.528;2024-01-10T03:36:00;5.2;5.2;
78678;PMS5003;67994;59.334;13.528;2024-01-10T03:37:01;4.0;4.0;
78678;PMS5003;67994;59.334;13.528;2024-01-10T03:38:00;4.0;4.0;
78678;PMS5003;67994;59.334;13.528;2024-01-10T03:39:00;4.0;4.0;
78678;PMS5003;67994;59.334;13.528;2024-01-10T03:40:00;4.0;4.0;
78678;PMS5003;67994;59.334;13.528;2024-01-10T03:41:00;4.0;4.0;
78678;PMS5003;67994;59.334;13.528;2024-01-10T03:42:00;13.3;6.4;
78678;PMS5003;67994;59.334;13.528;2024-01-10T03:43:00;13.3;6.4;
78678;PMS5003;67994;59.334;13.528;2024-01-10T03:44:00;13.3;6.4;
78678;PMS5003;67994;59.334;13.528;2024-01-10T03:45:00;13.3;6.4;
78678;PMS5003;67994;59.334;13.528;2024-01-10T03:46:00;13.3;6.4;
78678;PMS5003;67994;59.334;13.528;2024-01-10T03:47:00;5.8;4.0;
78678;PMS5003;67994;59.334;13.528;2024-01-10T03:48:00;5.8;4.0;
78678;PMS5003;67994;59.334;13.528;2024-01-10T03:49:00;5.8;4.0;
78678;PMS5003;67994;59.334;13.528;2024-01-10T03:50:00;5.8;4.0;
78678;PMS5003;67994;59.334;13.528;2024-01-10T03:51:00;5.8;4.0;
78678;PMS5003;67994;59.334;13.528;2024-01-10T03:52:00;6.4;6.4;
78678;PMS5003;67994;59.334;13.528;2024-01-10T03:53:00;6.4;6.4;
78678;PMS5003;67994;59.334;13.528;2024-01-10T03:54:00;6.4;6.4;
78678;PMS5003;67994;59.334;13.528;2024-01-10T03:55:00;6.4;6.4;
78678;PMS5003;67994;59.334;13.528;2024-01-10T03:56:03;6.4;6.4;
78678;PMS5003;67994;59.334;13.528;2024-01-10T03:57:00;4.2;4.0;
78678;PMS5003;67994;59.334;13.528;2024-01-10T03:58:00;4.2;4.0;
78678;PMS5003;67994;59.334;13.528;2024-01-10T03:59:00;4.2;4.0;
78678;PMS5003;67994;59.334;13.528;2024-01-10T04:00:00;4.2;4.0;
78678;PMS5003;67994;59.334;13.528;2024-01-10T04:01:03;4.2;4.0;
78678;PMS5003;67994;59.334;13.528;2024-01-10T04:02:00;6.4;4.6;
78678;PMS5003;67994;59.334;13.528;2024-01-10T04:03:00;6.4;4.6;
78678;PMS5003;67994;59.334;13.528;2024-01-10T04:04:00;6.4;4.6;
78678;PMS5003;67994;59.334;13.528;2024-01-10T04:05:00;6.4;4.6;
78678;PMS5003;67994;59.334;13.528;2024-01-10T04:06:00;6.4;4.6;
78678;PMS5003;67994;59.334;13.528;2024-01-10T04:07:00;4.0;3.7;
78678;PMS5003;67994;59.334;13.528;2024-01-10T04:08:00;4.0;3.7;
78678;PMS5003;67994;59.334;13.528;2024-01-10T04:09:00;4.0;3.7;
78678;PMS5003;67994;59.334;13.528;2024-01-10T04:10:00;4.0;3.7;
78678;PMS5003;67994;59.334;13.528;2024-01-10T04:11:00;4.0;3.7;
78678;PMS5003;67994;59.334;13.528;2024-01-10T04:12:00;6.0;4.0;
78678;PMS5003;67994;59.334;13.528;2024-01-10T04:13:00;6.0;4.0;
78678;PMS5003;67994;59.334;13.528;2024-01-10T04:14:00;6.0;4.0;
78678;PMS5003;67994;59.334;13.528;2024-01-10T04:15:00;6.0;4.0;
78678;PMS5003;67994;59.334;13.528;2024-01-10T04:16:00;6.0;4.0;
78678;PMS5003;67994;59.334;13.528;2024-01-10T04:18:00;3.1;3.1;
78678;PMS5003;67994;59.334;13.528;2024-01-10T04:19:00;3.1;3.1;
78678;PMS5003;67994;59.334;13.528;2024-01-10T04:20:00;3.1;3.1;
78678;PMS5003;67994;59.334;13.528;2024-01-10T04:21:00;3.1;3.1;
78678;PMS5003;67994;59.334;13.528;2024-01-10T04:22:00;7.6;6.0;
78678;PMS5003;67994;59.334;13.528;2024-01-10T04:23:00;7.6;6.0;
78678;PMS5003;67994;59.334;13.528;2024-01-10T04:24:00;7.6;6.0;
78678;PMS5003;67994;59.334;13.528;2024-01-10T04:25:00;7.6;6.0;
78678;PMS5003;67994;59.334;13.528;2024-01-10T04:26:00;7.6;6.0;
78678;PMS5003;67994;59.334;13.528;2024-01-10T04:27:00;4.0;4.0;
78678;PMS5003;67994;59.334;13.528;2024-01-10T04:28:00;4.0;4.0;
78678;PMS5003;67994;59.334;13.528;2024-01-10T04:29:00;4.0;4.0;
78678;PMS5003;67994;59.334;13.528;2024-01-10T04:30:00;4.0;4.0;
78678;PMS5003;67994;59.334;13.528;2024-01-10T04:31:00;4.0;4.0;
78678;PMS5003;67994;59.334;13.528;2024-01-10T04:32:00;6.7;3.0;
78678;PMS5003;67994;59.334;13.528;2024-01-10T04:33:00;6.7;3.0;
78678;PMS5003;67994;59.334;13.528;2024-01-10T04:34:00;6.7;3.0;
78678;PMS5003;67994;59.334;13.528;2024-01-10T04:35:00;6.7;3.0;
78678;PMS5003;67994;59.334;13.528;2024-01-10T04:36:00;6.7;3.0;
78678;PMS5003;67994;59.334;13.528;2024-01-10T04:37:00;9.7;4.0;
78678;PMS5003;67994;59.334;13.528;2024-01-10T04:38:00;9.7;4.0;
78678;PMS5003;67994;59.334;13.528;2024-01-10T04:39:00;9.7;4.0;
78678;PMS5003;67994;59.334;13.528;2024-01-10T04:40:00;9.7;4.0;
78678;PMS5003;67994;59.334;13.528;2024-01-10T04:41:00;9.7;4.0;
78678;PMS5003;67994;59.334;13.528;2024-01-10T04:42:00;6.0;4.8;
78678;PMS5003;67994;59.334;13.528;2024-01-10T04:43:00;6.0;4.8;
78678;PMS5003;67994;59.334;13.528;2024-01-10T04:44:00;6.0;4.8;
78678;PMS5003;67994;59.334;13.528;2024-01-10T04:45:00;6.0;4.8;
78678;PMS5003;67994;59.334;13.528;2024-01-10T04:46:00;6.0;4.8;
78678;PMS5003;67994;59.334;13.528;2024-01-10T04:47:00;5.2;4.0;
78678;PMS5003;67994;59.334;13.528;2024-01-10T04:48:00;5.2;4.0;
78678;PMS5003;67994;59.334;13.528;2024-01-10T04:49:00;5.2;4.0;
78678;PMS5003;67994;59.334;13.528;2024-01-10T04:50:00;5.2;4.0;
78678;PMS5003;67994;59.334;13.528;2024-01-10T04:51:00;5.2;4.0;
78678;PMS5003;67994;59.334;13.528;2024-01-10T04:52:00;12.1;6.7;
78678;PMS5003;67994;59.334;13.528;2024-01-10T04:53:00;12.1;6.7;
78678;PMS5003;67994;59.334;13.528;2024-01-10T04:54:00;12.1;6.7;
78678;PMS5003;67994;59.334;13.528;2024-01-10T04:55:00;12.1;6.7;
78678;PMS5003;67994;59.334;13.528;2024-01-10T04:56:00;12.1;6.7;
78678;PMS5003;67994;59.334;13.528;2024-01-10T04:57:00;5.2;4.0;
78678;PMS5003;67994;59.334;13.528;2024-01-10T04:58:00;5.2;4.0;
78678;PMS5003;67994;59.334;13.528;2024-01-10T04:59:00;5.2;4.0;
78678;PMS5003;67994;59.334;13.528;2024-01-10T05:00:01;5.2;4.0;
78678;PMS5003;67994;59.334;13.528;2024-01-10T05:01:00;5.2;4.0;
78678;PMS5003;67994;59.334;13.528;2024-01-10T05:02:00;4.3;4.3;
78678;PMS5003;67994;59.334;13.528;2024-01-10T05:03:00;4.3;4.3;
78678;PMS5003;67994;59.334;13.528;2024-01-10T05:04:00;4.3;4.3;
78678;PMS5003;67994;59.334;13.528;2024-01-10T05:05:00;4.3;4.3;
78678;PMS5003;67994;59.334;13.528;2024-01-10T05:06:00;4.3;4.3;
78678;PMS5003;67994;59.334;13.528;2024-01-10T05:07:00;6.0;4.0;
78678;PMS5003;67994;59.334;13.528;2024-01-10T05:08:00;6.0;4.0;
78678;PMS5003;67994;59.334;13.528;2024-01-10T05:09:00;6.0;4.0;
78678;PMS5003;67994;59.334;13.528;2024-01-10T05:10:00;6.0;4.0;
78678;PMS5003;67994;59.334;13.528;2024-01-10T05:11:00;6.0;4.0;
78678;PMS5003;67994;59.334;13.528;2024-01-10T05:12:00;6.0;4.6;
78678;PMS5003;67994;59.334;13.528;2024-01-10T05:13:00;6.0;4.6;
78678;PMS5003;67994;59.334;13.528;2024-01-10T05:14:00;6.0;4.6;
78678;PMS5003;67994;59.334;13.528;2024-01-10T05:15:00;6.0;4.6;
78678;PMS5003;67994;59.334;13.528;2024-01-10T05:16:00;6.0;4.6;
78678;PMS5003;67994;59.334;13.528;2024-01-10T05:17:00;4.0;3.4;
78678;PMS5003;67994;59.334;13.528;2024-01-10T05:18:00;4.0;3.4;
78678;PMS5003;67994;59.334;13.528;2024-01-10T05:19:00;4.0;3.4;
78678;PMS5003;67994;59.334;13.528;2024-01-10T05:20:00;4.0;3.4;
78678;PMS5003;67994;59.334;13.528;2024-01-10T05:21:00;4.0;3.4;
78678;PMS5003;67994;59.334;13.528;2024-01-10T05:22:00;4.2;4.2;
78678;PMS5003;67994;59.334;13.528;2024-01-10T05:23:00;4.2;4.2;
78678;PMS5003;67994;59.334;13.528;2024-01-10T05:24:00;4.2;4.2;
78678;PMS5003;67994;59.334;13.528;2024-01-10T05:25:00;4.2;4.2;
78678;PMS5003;67994;59.334;13.528;2024-01-10T05:26:00;4.2;4.2;
78678;PMS5003;67994;59.334;13.528;2024-01-10T05:27:00;5.2;5.2;
78678;PMS5003;67994;59.334;13.528;2024-01-10T05:28:00;5.2;5.2;
78678;PMS5003;67994;59.334;13.528;2024-01-10T05:29:00;5.2;5.2;
78678;PMS5003;67994;59.334;13.528;2024-01-10T05:30:00;5.2;5.2;
78678;PMS5003;67994;59.334;13.528;2024-01-10T05:31:00;5.2;5.2;
78678;PMS5003;67994;59.334;13.528;2024-01-10T05:32:00;4.0;3.0;
78678;PMS5003;67994;59.334;13.528;2024-01-10T05:33:00;4.0;3.0;
78678;PMS5003;67994;59.334;13.528;2024-01-10T05:34:00;4.0;3.0;
78678;PMS5003;67994;59.334;13.528;2024-01-10T05:35:00;4.0;3.0;
78678;PMS5003;67994;59.334;13.528;2024-01-10T05:36:00;4.0;3.0;
78678;PMS5003;67994;59.334;13.528;2024-01-10T05:37:00;6.3;4.5;
78678;PMS5003;67994;59.334;13.528;2024-01-10T05:38:00;6.3;4.5;
78678;PMS5003;67994;59.334;13.528;2024-01-10T05:39:00;6.3;4.5;
78678;PMS5003;67994;59.334;13.528;2024-01-10T05:40:00;6.3;4.5;
78678;PMS5003;67994;59.334;13.528;2024-01-10T05:41:00;6.3;4.5;
78678;PMS5003;67994;59.334;13.528;2024-01-10T05:42:00;3.0;3.0;
78678;PMS5003;67994;59.334;13.528;2024-01-10T05:43:00;3.0;3.0;
78678;PMS5003;67994;59.334;13.528;2024-01-10T05:44:00;3.0;3.0;
78678;PMS5003;67994;59.334;13.528;2024-01-10T05:45:00;3.0;3.0;
78678;PMS5003;67994;59.334;13.528;2024-01-10T05:46:00;3.0;3.0;
78678;PMS5003;67994;59.334;13.528;2024-01-10T05:47:00;6.0;4.0;
78678;PMS5003;67994;59.334;13.528;2024-01-10T05:48:00;6.0;4.0;
78678;PMS5003;67994;59.334;13.528;2024-01-10T05:49:00;6.0;4.0;
78678;PMS5003;67994;59.334;13.528;2024-01-10T05:50:00;6.0;4.0;
78678;PMS5003;67994;59.334;13.528;2024-01-10T05:51:00;6.0;4.0;
78678;PMS5003;67994;59.334;13.528;2024-01-10T05:52:00;9.0;6.0;
78678;PMS5003;67994;59.334;13.528;2024-01-10T05:53:00;9.0;6.0;
78678;PMS5003;67994;59.334;13.528;2024-01-10T05:54:00;9.0;6.0;
78678;PMS5003;67994;59.334;13.528;2024-01-10T05:55:00;9.0;6.0;
78678;PMS5003;67994;59.334;13.528;2024-01-10T05:56:00;9.0;6.0;
78678;PMS5003;67994;59.334;13.528;2024-01-10T05:57:00;6.6;1.6;
78678;PMS5003;67994;59.334;13.528;2024-01-10T05:58:00;6.6;1.6;
78678;PMS5003;67994;59.334;13.528;2024-01-10T05:59:00;6.6;1.6;
78678;PMS5003;67994;59.334;13.528;2024-01-10T06:00:00;6.6;1.6;
78678;PMS5003;67994;59.334;13.528;2024-01-10T06:01:00;6.6;1.6;
78678;PMS5003;67994;59.334;13.528;2024-01-10T06:02:00;7.7;7.7;
78678;PMS5003;67994;59.334;13.528;2024-01-10T06:03:00;7.7;7.7;
78678;PMS5003;67994;59.334;13.528;2024-01-10T06:04:00;7.7;7.7;
78678;PMS5003;67994;59.334;13.528;2024-01-10T06:05:00;7.7;7.7;
78678;PMS5003;67994;59.334;13.528;2024-01-10T06:06:00;7.7;7.7;
78678;PMS5003;67994;59.334;13.528;2024-01-10T06:07:00;4.0;4.0;
78678;PMS5003;67994;59.334;13.528;2024-01-10T06:08:00;4.0;4.0;
78678;PMS5003;67994;59.334;13.528;2024-01-10T06:09:00;4.0;4.0;
78678;PMS5003;67994;59.334;13.528;2024-01-10T06:10:00;4.0;4.0;
78678;PMS5003;67994;59.334;13.528;2024-01-10T06:11:02;4.0;4.0;
78678;PMS5003;67994;59.334;13.528;2024-01-10T06:12:00;6.3;6.0;
78678;PMS5003;67994;59.334;13.528;2024-01-10T06:13:00;6.3;6.0;
78678;PMS5003;67994;59.334;13.528;2024-01-10T06:14:00;6.3;6.0;
78678;PMS5003;67994;59.334;13.528;2024-01-10T06:15:00;6.3;6.0;
78678;PMS5003;67994;59.334;13.528;2024-01-10T06:16:00;6.3;6.0;